sensor_id;sensor_type;location;lat;lon;timestamp;pressure;altitude;pressure_sealevel;temperature;humidity
32933;BME280;19444;50.518;10.870;2023-03-26T00:01:49;95679.22;;;4.99;100.00
32933;BME280;19444;50.518;10.870;2023-03-26T00:04:46;95676.13;;;4.78;100.00
32933;BME280;19444;50.518;10.870;2023-03-26T00:07:43;95674.09;;;4.89;100.00
32933;BME280;19444;50.518;10.870;2023-03-26T00:10:41;95669.72;;;4.79;100.00
32933;BME280;19444;50.518;10.870;2023-03-26T00:13:39;95670.41;;;4.84;100.00
32933;BME280;19444;50.518;10.870;2023-03-26T00:16:37;95686.41;;;4.98;100.00
32933;BME280;19444;50.518;10.870;2023-03-26T00:19:34;95692.38;;;4.90;100.00
32933;BME280;19444;50.518;10.870;2023-03-26T00:22:31;95686.75;;;4.78;100.00
32933;BME280;19444;50.518;10.870;2023-03-26T00:25:27;95686.66;;;4.83;100.00
32933;BME280;19444;50.518;10.870;2023-03-26T00:28:24;95687.94;;;4.85;100.00
32933;BME280;19444;50.518;10.870;2023-03-26T00:31:22;95679.06;;;4.76;100.00
32933;BME280;19444;50.518;10.870;2023-03-26T00:34:19;95675.97;;;4.88;100.00
32933;BME280;19444;50.518;10.870;2023-03-26T00:37:18;95685.38;;;4.80;100.00
32933;BME280;19444;50.518;10.870;2023-03-26T00:40:16;95682.53;;;4.91;100.00
32933;BME280;19444;50.518;10.870;2023-03-26T00:43:13;95681.25;;;4.88;100.00
32933;BME280;19444;50.518;10.870;2023-03-26T00:46:17;95669.38;;;4.85;100.00
32933;BME280;19444;50.518;10.870;2023-03-26T00:49:14;95669.63;;;4.84;100.00
32933;BME280;19444;50.518;10.870;2023-03-26T00:52:11;95667.63;;;4.95;100.00
32933;BME280;19444;50.518;10.870;2023-03-26T00:55:08;95668.16;;;4.78;100.00
32933;BME280;19444;50.518;10.870;2023-03-26T00:58:06;95651.84;;;4.84;100.00
32933;BME280;19444;50.518;10.870;2023-03-26T01:01:11;95655.44;;;4.75;100.00
32933;BME280;19444;50.518;10.870;2023-03-26T01:04:36;95650.50;;;4.87;100.00
32933;BME280;19444;50.518;10.870;2023-03-26T01:07:33;95653.94;;;4.88;100.00
32933;BME280;19444;50.518;10.870;2023-03-26T01:10:30;95648.53;;;4.93;100.00
32933;BME280;19444;50.518;10.870;2023-03-26T01:13:37;95648.53;;;4.93;100.00
32933;BME280;19444;50.518;10.870;2023-03-26T01:16:49;95647.34;;;4.85;100.00
32933;BME280;19444;50.518;10.870;2023-03-26T01:20:15;95644.47;;;4.81;100.00
32933;BME280;19444;50.518;10.870;2023-03-26T01:23:22;95641.41;;;4.74;100.00
32933;BME280;19444;50.518;10.870;2023-03-26T01:30:12;95640.16;;;4.85;100.00
32933;BME280;19444;50.518;10.870;2023-03-26T01:40:32;95639.56;;;4.89;100.00
32933;BME280;19444;50.518;10.870;2023-03-26T01:43:59;95642.13;;;4.94;100.00
32933;BME280;19444;50.518;10.870;2023-03-26T01:46:59;95640.97;;;5.00;100.00
32933;BME280;19444;50.518;10.870;2023-03-26T01:49:56;95641.25;;;4.98;100.00
32933;BME280;19444;50.518;10.870;2023-03-26T01:52:53;95642.94;;;4.94;100.00
32933;BME280;19444;50.518;10.870;2023-03-26T02:03:29;95637.03;;;4.97;100.00
32933;BME280;19444;50.518;10.870;2023-03-26T02:06:43;95631.13;;;5.00;100.00
32933;BME280;19444;50.518;10.870;2023-03-26T02:09:50;95632.03;;;4.96;100.00
32933;BME280;19444;50.518;10.870;2023-03-26T02:12:51;95635.16;;;4.98;100.00
32933;BME280;19444;50.518;10.870;2023-03-26T02:16:03;95636.38;;;5.05;100.00
32933;BME280;19444;50.518;10.870;2023-03-26T02:19:00;95631.53;;;5.07;100.00
32933;BME280;19444;50.518;10.870;2023-03-26T02:21:57;95627.63;;;5.05;100.00
32933;BME280;19444;50.518;10.870;2023-03-26T02:24:56;95626.03;;;5.04;100.00
32933;BME280;19444;50.518;10.870;2023-03-26T02:27:53;95625.25;;;5.03;100.00
32933;BME280;19444;50.518;10.870;2023-03-26T02:30:50;95626.03;;;5.04;100.00
32933;BME280;19444;50.518;10.870;2023-03-26T02:33:48;95624.97;;;5.05;100.00
32933;BME280;19444;50.518;10.870;2023-03-26T02:36:45;95625.81;;;5.00;100.00
32933;BME280;19444;50.518;10.870;2023-03-26T02:39:42;95625.81;;;5.00;100.00
32933;BME280;19444;50.518;10.870;2023-03-26T02:42:39;95627.03;;;5.08;100.00
32933;BME280;19444;50.518;10.870;2023-03-26T02:45:36;95622.31;;;5.05;100.00
32933;BME280;19444;50.518;10.870;2023-03-26T02:48:33;95618.56;;;5.06;100.00
32933;BME280;19444;50.518;10.870;2023-03-26T02:51:31;95622.19;;;5.10;100.00
32933;BME280;19444;50.518;10.870;2023-03-26T02:54:31;95613.13;;;5.11;100.00
32933;BME280;19444;50.518;10.870;2023-03-26T02:57:29;95609.59;;;5.02;100.00
32933;BME280;19444;50.518;10.870;2023-03-26T03:00:26;95607.44;;;5.04;100.00
32933;BME280;19444;50.518;10.870;2023-03-26T03:03:25;95599.69;;;5.07;100.00
32933;BME280;19444;50.518;10.870;2023-03-26T03:06:22;95594.97;;;5.04;100.00
32933;BME280;19444;50.518;10.870;2023-03-26T03:09:23;95588.28;;;5.07;100.00
32933;BME280;19444;50.518;10.870;2023-03-26T03:12:23;95586.88;;;5.09;100.00
32933;BME280;19444;50.518;10.870;2023-03-26T03:15:20;95587.00;;;5.04;100.00
32933;BME280;19444;50.518;10.870;2023-03-26T03:18:17;95588.09;;;5.03;100.00
32933;BME280;19444;50.518;10.870;2023-03-26T03:21:14;95589.34;;;5.06;100.00
32933;BME280;19444;50.518;10.870;2023-03-26T03:24:10;95588.56;;;5.05;100.00
32933;BME280;19444;50.518;10.870;2023-03-26T03:27:09;95586.78;;;5.01;100.00
32933;BME280;19444;50.518;10.870;2023-03-26T03:30:08;95585.91;;;5.05;100.00
32933;BME280;19444;50.518;10.870;2023-03-26T03:33:06;95593.09;;;5.05;100.00
32933;BME280;19444;50.518;10.870;2023-03-26T03:36:03;95586.69;;;5.06;100.00
32933;BME280;19444;50.518;10.870;2023-03-26T03:39:16;95584.81;;;5.06;100.00
32933;BME280;19444;50.518;10.870;2023-03-26T03:42:13;95588.34;;;5.02;100.00
32933;BME280;19444;50.518;10.870;2023-03-26T03:45:10;95584.91;;;5.01;100.00
32933;BME280;19444;50.518;10.870;2023-03-26T03:48:07;95581.97;;;5.03;100.00
32933;BME280;19444;50.518;10.870;2023-03-26T03:51:04;95584.91;;;5.01;100.00
32933;BME280;19444;50.518;10.870;2023-03-26T03:54:02;95575.59;;;5.04;100.00
32933;BME280;19444;50.518;10.870;2023-03-26T03:56:59;95584.03;;;5.06;100.00
32933;BME280;19444;50.518;10.870;2023-03-26T03:59:57;95581.16;;;5.02;100.00
32933;BME280;19444;50.518;10.870;2023-03-26T04:02:54;95605.47;;;5.09;100.00
32933;BME280;19444;50.518;10.870;2023-03-26T04:05:52;95596.25;;;5.07;100.00
32933;BME280;19444;50.518;10.870;2023-03-26T04:08:51;95589.84;;;5.08;100.00
32933;BME280;19444;50.518;10.870;2023-03-26T04:11:48;95590.44;;;5.05;100.00
32933;BME280;19444;50.518;10.870;2023-03-26T04:14:47;95583.34;;;5.00;100.00
32933;BME280;19444;50.518;10.870;2023-03-26T04:17:44;95591.91;;;4.97;100.00
32933;BME280;19444;50.518;10.870;2023-03-26T04:20:43;95591.53;;;5.04;100.00
32933;BME280;19444;50.518;10.870;2023-03-26T04:23:42;95591.00;;;5.02;100.00
32933;BME280;19444;50.518;10.870;2023-03-26T04:26:39;95587.78;;;5.05;100.00
32933;BME280;19444;50.518;10.870;2023-03-26T04:29:41;95593.16;;;4.86;100.00
32933;BME280;19444;50.518;10.870;2023-03-26T04:32:39;95587.44;;;4.79;100.00
32933;BME280;19444;50.518;10.870;2023-03-26T04:35:38;95587.38;;;4.98;100.00
32933;BME280;19444;50.518;10.870;2023-03-26T04:38:44;95580.97;;;4.99;100.00
32933;BME280;19444;50.518;10.870;2023-03-26T04:41:44;95587.56;;;5.01;100.00
32933;BME280;19444;50.518;10.870;2023-03-26T04:44:42;95579.38;;;4.84;100.00
32933;BME280;19444;50.518;10.870;2023-03-26T04:47:39;95582.94;;;4.93;100.00
32933;BME280;19444;50.518;10.870;2023-03-26T04:50:36;95574.47;;;4.91;100.00
32933;BME280;19444;50.518;10.870;2023-03-26T04:53:33;95568.38;;;4.91;100.00
32933;BME280;19444;50.518;10.870;2023-03-26T04:56:39;95565.44;;;4.92;100.00
32933;BME280;19444;50.518;10.870;2023-03-26T04:59:39;95567.13;;;4.88;100.00
32933;BME280;19444;50.518;10.870;2023-03-26T05:02:36;95563.88;;;4.77;100.00
32933;BME280;19444;50.518;10.870;2023-03-26T05:05:35;95563.75;;;4.69;100.00
32933;BME280;19444;50.518;10.870;2023-03-26T05:08:32;95564.53;;;4.83;100.00
32933;BME280;19444;50.518;10.870;2023-03-26T05:11:29;95560.78;;;4.70;100.00
32933;BME280;19444;50.518;10.870;2023-03-26T05:14:27;95556.00;;;4.86;100.00
32933;BME280;19444;50.518;10.870;2023-03-26T05:17:24;95548.31;;;4.84;100.00
32933;BME280;19444;50.518;10.870;2023-03-26T05:20:25;95549.19;;;4.94;100.00
32933;BME280;19444;50.518;10.870;2023-03-26T05:23:22;95543.50;;;5.00;100.00
32933;BME280;19444;50.518;10.870;2023-03-26T05:26:19;95539.88;;;4.96;100.00
32933;BME280;19444;50.518;10.870;2023-03-26T05:29:17;95541.16;;;4.99;100.00
32933;BME280;19444;50.518;10.870;2023-03-26T05:32:14;95537.22;;;4.96;100.00
32933;BME280;19444;50.518;10.870;2023-03-26T05:35:14;95535.75;;;4.90;100.00
32933;BME280;19444;50.518;10.870;2023-03-26T05:38:12;95539.47;;;4.89;100.00
32933;BME280;19444;50.518;10.870;2023-03-26T05:41:09;95545.59;;;5.03;100.00
32933;BME280;19444;50.518;10.870;2023-03-26T05:44:06;95540.16;;;5.08;100.00
32933;BME280;19444;50.518;10.870;2023-03-26T05:47:03;95528.06;;;5.02;100.00
32933;BME280;19444;50.518;10.870;2023-03-26T05:50:00;95526.00;;;4.99;100.00
32933;BME280;19444;50.518;10.870;2023-03-26T05:52:57;95526.78;;;5.00;100.00
32933;BME280;19444;50.518;10.870;2023-03-26T05:55:54;95518.94;;;5.08;100.00
32933;BME280;19444;50.518;10.870;2023-03-26T05:58:55;95516.47;;;4.98;100.00
32933;BME280;19444;50.518;10.870;2023-03-26T06:01:52;95517.19;;;5.04;100.00
32933;BME280;19444;50.518;10.870;2023-03-26T06:04:50;95520.72;;;5.13;100.00
32933;BME280;19444;50.518;10.870;2023-03-26T06:07:48;95514.53;;;5.04;100.00
32933;BME280;19444;50.518;10.870;2023-03-26T06:10:45;95512.63;;;5.18;100.00
32933;BME280;19444;50.518;10.870;2023-03-26T06:13:42;95503.19;;;5.26;100.00
32933;BME280;19444;50.518;10.870;2023-03-26T06:16:39;95507.78;;;5.34;100.00
32933;BME280;19444;50.518;10.870;2023-03-26T06:19:37;95505.13;;;5.34;100.00
32933;BME280;19444;50.518;10.870;2023-03-26T06:22:34;95504.03;;;5.35;100.00
32933;BME280;19444;50.518;10.870;2023-03-26T06:25:30;95500.78;;;5.38;100.00
32933;BME280;19444;50.518;10.870;2023-03-26T06:28:27;95493.03;;;5.41;100.00
32933;BME280;19444;50.518;10.870;2023-03-26T06:31:24;95479.44;;;5.43;100.00
32933;BME280;19444;50.518;10.870;2023-03-26T06:34:21;95480.06;;;5.62;100.00
32933;BME280;19444;50.518;10.870;2023-03-26T06:37:18;95466.66;;;5.67;100.00
32933;BME280;19444;50.518;10.870;2023-03-26T06:40:15;95467.72;;;5.66;100.00
32933;BME280;19444;50.518;10.870;2023-03-26T06:43:12;95471.47;;;5.65;100.00
32933;BME280;19444;50.518;10.870;2023-03-26T06:46:09;95465.50;;;5.60;100.00
32933;BME280;19444;50.518;10.870;2023-03-26T06:49:06;95465.75;;;5.72;100.00
32933;BME280;19444;50.518;10.870;2023-03-26T06:52:03;95464.53;;;5.56;100.00
32933;BME280;19444;50.518;10.870;2023-03-26T06:55:00;95464.19;;;5.49;100.00
32933;BME280;19444;50.518;10.870;2023-03-26T06:57:57;95457.47;;;5.51;100.00
32933;BME280;19444;50.518;10.870;2023-03-26T07:00:55;95460.06;;;5.42;100.00
32933;BME280;19444;50.518;10.870;2023-03-26T07:03:52;95463.59;;;5.38;100.00
32933;BME280;19444;50.518;10.870;2023-03-26T07:06:49;95459.72;;;5.58;100.00
32933;BME280;19444;50.518;10.870;2023-03-26T07:09:47;95451.44;;;5.59;100.00
32933;BME280;19444;50.518;10.870;2023-03-26T07:12:43;95448.16;;;5.62;100.00
32933;BME280;19444;50.518;10.870;2023-03-26T07:15:41;95448.22;;;5.71;100.00
32933;BME280;19444;50.518;10.870;2023-03-26T07:18:38;95448.13;;;5.76;100.00
32933;BME280;19444;50.518;10.870;2023-03-26T07:21:35;95447.28;;;5.89;100.00
32933;BME280;19444;50.518;10.870;2023-03-26T07:24:32;95451.38;;;5.73;100.00
32933;BME280;19444;50.518;10.870;2023-03-26T07:34:55;95440.06;;;5.45;100.00
32933;BME280;19444;50.518;10.870;2023-03-26T07:41:42;95430.47;;;5.58;100.00
32933;BME280;19444;50.518;10.870;2023-03-26T07:45:16;95430.25;;;5.68;100.00
32933;BME280;19444;50.518;10.870;2023-03-26T07:48:28;95429.56;;;5.85;100.00
32933;BME280;19444;50.518;10.870;2023-03-26T07:51:27;95438.88;;;5.74;100.00
32933;BME280;19444;50.518;10.870;2023-03-26T07:54:25;95426.69;;;5.95;100.00
32933;BME280;19444;50.518;10.870;2023-03-26T08:01:04;95424.38;;;6.02;100.00
32933;BME280;19444;50.518;10.870;2023-03-26T08:07:49;95412.69;;;5.89;100.00
32933;BME280;19444;50.518;10.870;2023-03-26T08:17:40;95395.56;;;6.26;100.00
32933;BME280;19444;50.518;10.870;2023-03-26T08:20:48;95388.75;;;6.12;100.00
32933;BME280;19444;50.518;10.870;2023-03-26T08:24:12;95385.53;;;6.23;100.00
32933;BME280;19444;50.518;10.870;2023-03-26T08:30:33;95378.13;;;6.51;100.00
32933;BME280;19444;50.518;10.870;2023-03-26T08:33:30;95363.13;;;6.64;100.00
32933;BME280;19444;50.518;10.870;2023-03-26T08:36:28;95360.63;;;6.68;100.00
32933;BME280;19444;50.518;10.870;2023-03-26T08:39:25;95355.63;;;6.75;100.00
32933;BME280;19444;50.518;10.870;2023-03-26T08:46:56;95353.00;;;7.18;100.00
32933;BME280;19444;50.518;10.870;2023-03-26T08:50:35;95354.25;;;6.86;100.00
32933;BME280;19444;50.518;10.870;2023-03-26T09:01:42;95336.56;;;7.16;100.00
32933;BME280;19444;50.518;10.870;2023-03-26T09:08:39;95333.41;;;6.97;100.00
32933;BME280;19444;50.518;10.870;2023-03-26T09:22:37;95324.47;;;6.93;100.00
32933;BME280;19444;50.518;10.870;2023-03-26T09:26:09;95326.53;;;6.87;100.00
32933;BME280;19444;50.518;10.870;2023-03-26T09:40:19;95297.84;;;7.10;100.00
32933;BME280;19444;50.518;10.870;2023-03-26T09:47:51;95285.47;;;7.05;100.00
32933;BME280;19444;50.518;10.870;2023-03-26T09:51:33;95293.16;;;6.90;100.00
32933;BME280;19444;50.518;10.870;2023-03-26T09:54:52;95281.06;;;6.92;100.00
32933;BME280;19444;50.518;10.870;2023-03-26T10:01:48;95291.91;;;6.87;100.00
32933;BME280;19444;50.518;10.870;2023-03-26T10:12:11;95273.88;;;6.84;100.00
32933;BME280;19444;50.518;10.870;2023-03-26T10:15:42;95275.28;;;6.73;100.00
32933;BME280;19444;50.518;10.870;2023-03-26T10:45:55;95263.22;;;6.93;100.00
32933;BME280;19444;50.518;10.870;2023-03-26T10:49:36;95265.56;;;6.85;100.00
32933;BME280;19444;50.518;10.870;2023-03-26T10:53:06;95261.16;;;6.55;100.00
32933;BME280;19444;50.518;10.870;2023-03-26T10:56:31;95275.44;;;6.59;100.00
32933;BME280;19444;50.518;10.870;2023-03-26T10:59:28;95265.69;;;6.37;100.00
32933;BME280;19444;50.518;10.870;2023-03-26T11:02:37;95270.72;;;6.47;100.00
32933;BME280;19444;50.518;10.870;2023-03-26T11:06:10;95283.09;;;6.52;100.00
32933;BME280;19444;50.518;10.870;2023-03-26T11:13:52;95277.16;;;5.98;100.00
32933;BME280;19444;50.518;10.870;2023-03-26T11:20:12;95269.84;;;6.04;100.00
32933;BME280;19444;50.518;10.870;2023-03-26T11:27:26;95269.75;;;5.86;100.00
32933;BME280;19444;50.518;10.870;2023-03-26T11:30:47;95269.44;;;5.88;100.00
32933;BME280;19444;50.518;10.870;2023-03-26T11:33:52;95273.97;;;5.87;100.00
32933;BME280;19444;50.518;10.870;2023-03-26T11:36:54;95260.34;;;5.80;100.00
32933;BME280;19444;50.518;10.870;2023-03-26T11:39:55;95272.06;;;5.79;100.00
32933;BME280;19444;50.518;10.870;2023-03-26T11:43:06;95264.00;;;5.62;100.00
32933;BME280;19444;50.518;10.870;2023-03-26T11:46:11;95259.25;;;5.81;100.00
32933;BME280;19444;50.518;10.870;2023-03-26T11:49:12;95263.84;;;5.58;100.00
32933;BME280;19444;50.518;10.870;2023-03-26T11:52:12;95257.25;;;5.56;100.00
32933;BME280;19444;50.518;10.870;2023-03-26T11:55:12;95253.16;;;5.50;100.00
32933;BME280;19444;50.518;10.870;2023-03-26T11:58:26;95247.91;;;5.58;100.00
32933;BME280;19444;50.518;10.870;2023-03-26T12:01:28;95247.03;;;5.40;100.00
32933;BME280;19444;50.518;10.870;2023-03-26T12:04:41;95240.97;;;5.49;100.00
32933;BME280;19444;50.518;10.870;2023-03-26T12:08:00;95244.16;;;5.59;100.00
32933;BME280;19444;50.518;10.870;2023-03-26T12:11:03;95231.28;;;5.53;100.00
32933;BME280;19444;50.518;10.870;2023-03-26T12:14:04;95220.16;;;5.82;100.00
32933;BME280;19444;50.518;10.870;2023-03-26T12:20:48;95215.81;;;5.55;100.00
32933;BME280;19444;50.518;10.870;2023-03-26T12:23:53;95214.34;;;5.71;100.00
32933;BME280;19444;50.518;10.870;2023-03-26T12:33:34;95202.44;;;5.68;100.00
32933;BME280;19444;50.518;10.870;2023-03-26T12:36:32;95191.50;;;5.70;100.00
32933;BME280;19444;50.518;10.870;2023-03-26T12:39:37;95191.22;;;5.80;100.00
32933;BME280;19444;50.518;10.870;2023-03-26T12:42:58;95186.66;;;5.72;100.00
32933;BME280;19444;50.518;10.870;2023-03-26T12:46:21;95178.81;;;5.58;100.00
32933;BME280;19444;50.518;10.870;2023-03-26T12:49:43;95170.09;;;5.75;100.00
32933;BME280;19444;50.518;10.870;2023-03-26T12:53:14;95162.88;;;5.76;100.00
32933;BME280;19444;50.518;10.870;2023-03-26T12:56:37;95155.19;;;6.05;100.00
32933;BME280;19444;50.518;10.870;2023-03-26T13:06:49;95152.59;;;5.83;100.00
32933;BME280;19444;50.518;10.870;2023-03-26T13:24:22;95117.31;;;6.08;100.00
32933;BME280;19444;50.518;10.870;2023-03-26T13:28:40;95121.47;;;5.75;100.00
32933;BME280;19444;50.518;10.870;2023-03-26T13:31:38;95106.59;;;5.74;100.00
32933;BME280;19444;50.518;10.870;2023-03-26T13:38:32;95110.38;;;5.90;100.00
32933;BME280;19444;50.518;10.870;2023-03-26T13:48:22;95111.06;;;5.95;100.00
32933;BME280;19444;50.518;10.870;2023-03-26T13:51:40;95103.25;;;6.16;100.00
32933;BME280;19444;50.518;10.870;2023-03-26T13:54:46;95093.47;;;6.72;100.00
32933;BME280;19444;50.518;10.870;2023-03-26T14:01:13;95082.00;;;6.89;100.00
32933;BME280;19444;50.518;10.870;2023-03-26T14:04:35;95071.59;;;7.05;100.00
32933;BME280;19444;50.518;10.870;2023-03-26T14:07:43;95078.72;;;6.75;100.00
32933;BME280;19444;50.518;10.870;2023-03-26T14:10:48;95082.63;;;6.86;100.00
32933;BME280;19444;50.518;10.870;2023-03-26T14:14:11;95089.59;;;6.52;100.00
32933;BME280;19444;50.518;10.870;2023-03-26T14:17:35;95092.75;;;6.28;100.00
32933;BME280;19444;50.518;10.870;2023-03-26T14:27:50;95091.34;;;6.31;100.00
32933;BME280;19444;50.518;10.870;2023-03-26T14:38:36;95065.47;;;6.49;
32933;BME280;19444;50.518;10.870;2023-03-26T14:51:30;95055.19;;;6.21;100.00
32933;BME280;19444;50.518;10.870;2023-03-26T14:54:33;95051.72;;;6.38;100.00
32933;BME280;19444;50.518;10.870;2023-03-26T15:11:48;95029.41;;;6.22;100.00
32933;BME280;19444;50.518;10.870;2023-03-26T15:18:55;95020.31;;;6.23;100.00
32933;BME280;19444;50.518;10.870;2023-03-26T15:37:13;95016.03;;;6.39;100.00
32933;BME280;19444;50.518;10.870;2023-03-26T15:40:30;95013.94;;;6.62;100.00
32933;BME280;19444;50.518;10.870;2023-03-26T15:47:52;95010.03;;;6.68;100.00
32933;BME280;19444;50.518;10.870;2023-03-26T15:54:06;95010.19;;;6.63;100.00
32933;BME280;19444;50.518;10.870;2023-03-26T15:57:28;95003.78;;;6.55;100.00
32933;BME280;19444;50.518;10.870;2023-03-26T16:00:33;95009.91;;;6.47;100.00
32933;BME280;19444;50.518;10.870;2023-03-26T16:03:45;95012.53;;;6.65;100.00
32933;BME280;19444;50.518;10.870;2023-03-26T16:06:49;95011.78;;;6.55;100.00
32933;BME280;19444;50.518;10.870;2023-03-26T16:10:19;95018.09;;;6.42;100.00
32933;BME280;19444;50.518;10.870;2023-03-26T16:16:22;95024.00;;;6.39;100.00
32933;BME280;19444;50.518;10.870;2023-03-26T16:22:37;95021.22;;;6.36;100.00
32933;BME280;19444;50.518;10.870;2023-03-26T16:26:11;95026.22;;;6.28;100.00
32933;BME280;19444;50.518;10.870;2023-03-26T16:42:30;95033.44;;;6.19;100.00
32933;BME280;19444;50.518;10.870;2023-03-26T16:55:33;95029.09;;;6.06;100.00
32933;BME280;19444;50.518;10.870;2023-03-26T16:58:57;95030.78;;;6.02;100.00
32933;BME280;19444;50.518;10.870;2023-03-26T17:02:12;95032.53;;;5.98;100.00
32933;BME280;19444;50.518;10.870;2023-03-26T17:12:18;95046.88;;;5.80;100.00
32933;BME280;19444;50.518;10.870;2023-03-26T17:23:01;95043.75;;;5.60;100.00
32933;BME280;19444;50.518;10.870;2023-03-26T17:36:41;95040.91;;;5.31;100.00
32933;BME280;19444;50.518;10.870;2023-03-26T17:42:35;95058.72;;;5.48;100.00
32933;BME280;19444;50.518;10.870;2023-03-26T17:45:35;95073.53;;;5.31;100.00
32933;BME280;19444;50.518;10.870;2023-03-26T17:48:35;95065.09;;;5.38;100.00
32933;BME280;19444;50.518;10.870;2023-03-26T17:51:58;95061.19;;;5.27;100.00
32933;BME280;19444;50.518;10.870;2023-03-26T17:54:58;95061.03;;;5.23;100.00
32933;BME280;19444;50.518;10.870;2023-03-26T17:58:00;95063.06;;;5.26;100.00
32933;BME280;19444;50.518;10.870;2023-03-26T18:04:34;95068.69;;;4.94;100.00
32933;BME280;19444;50.518;10.870;2023-03-26T18:08:07;95063.63;;;5.06;100.00
32933;BME280;19444;50.518;10.870;2023-03-26T18:11:59;95059.50;;;4.91;100.00
32933;BME280;19444;50.518;10.870;2023-03-26T18:18:36;95074.81;;;4.63;100.00
32933;BME280;19444;50.518;10.870;2023-03-26T18:21:38;95075.25;;;4.56;100.00
32933;BME280;19444;50.518;10.870;2023-03-26T18:24:38;95089.84;;;4.68;100.00
32933;BME280;19444;50.518;10.870;2023-03-26T18:27:39;95088.28;;;4.67;100.00
32933;BME280;19444;50.518;10.870;2023-03-26T18:30:46;95093.59;;;4.67;100.00
32933;BME280;19444;50.518;10.870;2023-03-26T18:33:47;95108.06;;;4.61;100.00
32933;BME280;19444;50.518;10.870;2023-03-26T18:37:13;95117.69;;;4.56;100.00
32933;BME280;19444;50.518;10.870;2023-03-26T18:40:20;95107.81;;;4.48;100.00
32933;BME280;19444;50.518;10.870;2023-03-26T18:43:20;95113.78;;;4.54;100.00
32933;BME280;19444;50.518;10.870;2023-03-26T18:46:32;95104.38;;;4.48;100.00
32933;BME280;19444;50.518;10.870;2023-03-26T18:49:29;95108.34;;;4.37;100.00
32933;BME280;19444;50.518;10.870;2023-03-26T18:52:27;95102.56;;;4.35;100.00
32933;BME280;19444;50.518;10.870;2023-03-26T18:55:29;95106.44;;;3.92;100.00
32933;BME280;19444;50.518;10.870;2023-03-26T18:58:33;95101.91;;;4.07;100.00
32933;BME280;19444;50.518;10.870;2023-03-26T19:01:34;95104.88;;;3.91;100.00
32933;BME280;19444;50.518;10.870;2023-03-26T19:04:32;95108.31;;;3.92;100.00
32933;BME280;19444;50.518;10.870;2023-03-26T19:07:30;95095.50;;;3.85;100.00
32933;BME280;19444;50.518;10.870;2023-03-26T19:10:28;95105.50;;;3.88;100.00
32933;BME280;19444;50.518;10.870;2023-03-26T19:13:27;95099.97;;;3.98;100.00
32933;BME280;19444;50.518;10.870;2023-03-26T19:16:27;95093.94;;;3.84;100.00
32933;BME280;19444;50.518;10.870;2023-03-26T19:19:33;95089.13;;;3.86;100.00
32933;BME280;19444;50.518;10.870;2023-03-26T19:22:32;95094.03;;;3.79;100.00
32933;BME280;19444;50.518;10.870;2023-03-26T19:28:42;95094.28;;;3.91;100.00
32933;BME280;19444;50.518;10.870;2023-03-26T19:31:50;95086.84;;;3.93;100.00
32933;BME280;19444;50.518;10.870;2023-03-26T19:34:48;95088.47;;;4.03;100.00
32933;BME280;19444;50.518;10.870;2023-03-26T19:37:50;95082.81;;;3.96;100.00
32933;BME280;19444;50.518;10.870;2023-03-26T19:40:51;95081.34;;;3.90;100.00
32933;BME280;19444;50.518;10.870;2023-03-26T19:43:54;95077.50;;;3.96;100.00
32933;BME280;19444;50.518;10.870;2023-03-26T19:47:04;95084.59;;;4.09;100.00
32933;BME280;19444;50.518;10.870;2023-03-26T19:53:29;95076.72;;;3.95;100.00
32933;BME280;19444;50.518;10.870;2023-03-26T19:56:28;95076.41;;;3.97;100.00
32933;BME280;19444;50.518;10.870;2023-03-26T19:59:25;95077.66;;;3.99;100.00
32933;BME280;19444;50.518;10.870;2023-03-26T20:02:22;95081.41;;;3.98;100.00
32933;BME280;19444;50.518;10.870;2023-03-26T20:05:26;95079.22;;;4.00;100.00
32933;BME280;19444;50.518;10.870;2023-03-26T20:08:24;95077.88;;;4.03;100.00
32933;BME280;19444;50.518;10.870;2023-03-26T20:11:32;95074.13;;;4.04;100.00
32933;BME280;19444;50.518;10.870;2023-03-26T20:14:32;95073.63;;;4.02;100.00
32933;BME280;19444;50.518;10.870;2023-03-26T20:17:29;95067.53;;;4.02;100.00
32933;BME280;19444;50.518;10.870;2023-03-26T20:20:26;95063.75;;;4.16;100.00
32933;BME280;19444;50.518;10.870;2023-03-26T20:23:23;95064.78;;;4.07;100.00
32933;BME280;19444;50.518;10.870;2023-03-26T20:26:23;95062.50;;;4.14;100.00
32933;BME280;19444;50.518;10.870;2023-03-26T20:29:20;95063.03;;;4.24;100.00
32933;BME280;19444;50.518;10.870;2023-03-26T20:32:21;95071.41;;;4.18;100.00
32933;BME280;19444;50.518;10.870;2023-03-26T20:35:24;95066.25;;;4.13;100.00
32933;BME280;19444;50.518;10.870;2023-03-26T20:38:32;95070.31;;;4.19;100.00
32933;BME280;19444;50.518;10.870;2023-03-26T20:41:45;95071.09;;;4.19;100.00
32933;BME280;19444;50.518;10.870;2023-03-26T20:44:42;95069.44;;;4.23;100.00
32933;BME280;19444;50.518;10.870;2023-03-26T20:47:39;95080.09;;;4.32;100.00
32933;BME280;19444;50.518;10.870;2023-03-26T20:50:38;95080.44;;;4.17;100.00
32933;BME280;19444;50.518;10.870;2023-03-26T20:53:57;95079.44;;;4.26;100.00
32933;BME280;19444;50.518;10.870;2023-03-26T20:56:54;95075.22;;;4.25;100.00
32933;BME280;19444;50.518;10.870;2023-03-26T20:59:51;95082.50;;;4.20;100.00
32933;BME280;19444;50.518;10.870;2023-03-26T21:02:52;95085.59;;;4.13;100.00
32933;BME280;19444;50.518;10.870;2023-03-26T21:05:50;95080.63;;;4.20;100.00
32933;BME280;19444;50.518;10.870;2023-03-26T21:08:48;95084.13;;;4.07;100.00
32933;BME280;19444;50.518;10.870;2023-03-26T21:14:59;95078.09;;;4.15;100.00
32933;BME280;19444;50.518;10.870;2023-03-26T21:18:01;95092.09;;;4.07;100.00
32933;BME280;19444;50.518;10.870;2023-03-26T21:25:09;95086.75;;;4.21;100.00
32933;BME280;19444;50.518;10.870;2023-03-26T21:28:29;95090.94;;;4.22;100.00
32933;BME280;19444;50.518;10.870;2023-03-26T21:31:38;95103.84;;;4.15;100.00